createdAt,value
2018-04-18T00:00:18.400Z,5.93
2018-04-18T00:02:46.773Z,5.43
2018-04-18T00:05:15.121Z,5.80
2018-04-18T00:07:42.705Z,5.63
2018-04-18T00:10:10.306Z,5.37
2018-04-18T00:12:37.910Z,6.07
2018-04-18T00:15:13.430Z,6.13
2018-04-18T00:17:41.029Z,5.53
2018-04-18T00:20:08.637Z,5.70
2018-04-18T00:22:36.234Z,5.53
2018-04-18T00:25:03.835Z,5.90
2018-04-18T00:27:31.438Z,5.40
2018-04-18T00:29:59.029Z,5.33
2018-04-18T00:32:26.661Z,4.83
2018-04-18T00:34:55.096Z,5.10
2018-04-18T00:37:22.693Z,5.53
2018-04-18T00:39:50.291Z,5.63
2018-04-18T00:42:17.889Z,5.10
2018-04-18T00:44:45.510Z,5.30
2018-04-18T00:47:13.115Z,5.23
2018-04-18T00:49:40.758Z,5.30
2018-04-18T00:52:08.424Z,4.63
2018-04-18T00:54:36.037Z,4.97
2018-04-18T00:57:03.654Z,4.70
2018-04-18T00:59:31.251Z,6.63
2018-04-18T01:01:58.854Z,6.23
2018-04-18T01:04:26.500Z,5.40
2018-04-18T01:06:54.110Z,5.30
2018-04-18T01:09:21.759Z,4.87
2018-04-18T01:11:49.406Z,5.03
2018-04-18T01:14:17.093Z,5.40
2018-04-18T01:16:44.713Z,5.17
2018-04-18T01:19:13.130Z,4.90
2018-04-18T01:21:40.738Z,4.60
2018-04-18T01:24:11.469Z,4.87
2018-04-18T01:26:39.862Z,4.50
2018-04-18T01:29:07.469Z,4.83
2018-04-18T01:31:35.049Z,4.70
2018-04-18T01:34:02.629Z,5.00
2018-04-18T01:36:30.252Z,5.40
2018-04-18T01:38:57.840Z,4.93
2018-04-18T01:41:25.424Z,4.93
2018-04-18T01:43:53.017Z,4.90
2018-04-18T01:46:20.598Z,4.77
2018-04-18T01:48:48.183Z,5.07
2018-04-18T01:51:15.771Z,5.00
2018-04-18T01:53:44.125Z,5.00
2018-04-18T01:56:11.701Z,4.73
2018-04-18T01:58:39.285Z,4.70
2018-04-18T02:01:06.947Z,4.87
2018-04-18T02:03:35.299Z,4.80
2018-04-18T02:06:02.885Z,4.90
2018-04-18T02:08:31.268Z,4.73
2018-04-18T02:10:58.889Z,4.60
2018-04-18T02:13:26.476Z,5.13
2018-04-18T02:15:54.826Z,5.10
2018-04-18T02:18:22.412Z,5.40
2018-04-18T02:20:50.762Z,5.30
2018-04-18T02:23:18.340Z,5.00
2018-04-18T02:25:46.697Z,5.70
2018-04-18T02:28:14.307Z,5.27
2018-04-18T02:30:41.898Z,4.63
2018-04-18T02:33:09.493Z,5.33
2018-04-18T02:35:37.897Z,5.53
2018-04-18T02:38:05.496Z,5.00
2018-04-18T02:40:33.125Z,5.17
2018-04-18T02:43:00.715Z,5.33
2018-04-18T02:45:28.378Z,4.90
2018-04-18T02:47:55.962Z,5.60
2018-04-18T02:50:23.584Z,5.33
2018-04-18T02:52:51.168Z,5.20
2018-04-18T02:55:18.749Z,5.23
2018-04-18T02:57:46.332Z,4.80
2018-04-18T03:00:14.673Z,4.87
2018-04-18T03:02:43.057Z,5.23
2018-04-18T03:05:10.688Z,5.10
2018-04-18T03:07:38.278Z,5.13
2018-04-18T03:10:05.870Z,5.30
2018-04-18T03:12:34.224Z,5.63
2018-04-18T03:15:01.812Z,5.07
2018-04-18T03:17:30.222Z,4.67
2018-04-18T03:19:57.823Z,5.03
2018-04-18T03:22:25.413Z,4.70
2018-04-18T03:24:53.016Z,5.27
2018-04-18T03:27:20.600Z,5.30
2018-04-18T03:29:48.233Z,5.70
2018-04-18T03:32:15.826Z,5.23
2018-04-18T03:34:43.424Z,5.20
2018-04-18T03:37:11.001Z,5.23
2018-04-18T03:39:38.580Z,4.30
2018-04-18T03:42:06.168Z,4.67
2018-04-18T03:44:33.756Z,5.07
2018-04-18T03:47:02.136Z,4.77
2018-04-18T03:49:30.491Z,5.47
2018-04-18T03:51:58.073Z,5.20
2018-04-18T03:54:32.232Z,5.40
2018-04-18T03:56:59.816Z,5.37
2018-04-18T03:59:27.418Z,5.20
2018-04-18T04:01:55.035Z,5.63
2018-04-18T04:04:22.668Z,5.63
2018-04-18T04:06:50.252Z,5.67
2018-04-18T04:09:17.836Z,5.67
2018-04-18T04:11:46.188Z,5.47
2018-04-18T04:14:13.825Z,6.50
2018-04-18T04:16:54.136Z,6.17
2018-04-18T04:19:34.173Z,6.10
2018-04-18T04:22:13.634Z,5.77
2018-04-18T04:24:44.891Z,6.53
2018-04-18T04:27:12.509Z,5.50
2018-04-18T04:29:40.142Z,5.60
2018-04-18T04:32:07.782Z,6.33
2018-04-18T04:34:35.468Z,5.93
2018-04-18T04:37:03.143Z,5.90
2018-04-18T04:39:30.849Z,6.83
2018-04-18T04:41:59.217Z,6.03
2018-04-18T04:44:27.618Z,6.10
2018-04-18T04:46:55.269Z,5.73
2018-04-18T04:49:22.874Z,5.87
2018-04-18T04:51:50.522Z,5.90
2018-04-18T04:54:18.169Z,6.97
2018-04-18T04:56:45.782Z,6.83
2018-04-18T04:59:13.453Z,7.20
2018-04-18T05:01:41.058Z,7.67
2018-04-18T05:04:08.675Z,5.90
2018-04-18T05:06:36.331Z,5.67
2018-04-18T05:09:04.078Z,6.47
2018-04-18T05:11:31.686Z,6.00
2018-04-18T05:13:59.339Z,6.70
2018-04-18T05:16:27.709Z,8.43
2018-04-18T05:18:56.113Z,7.63
2018-04-18T05:21:23.726Z,7.63
2018-04-18T05:23:51.425Z,8.50
2018-04-18T05:26:19.844Z,8.33
2018-04-18T05:28:48.250Z,7.70
2018-04-18T05:31:15.901Z,8.30
2018-04-18T05:33:43.502Z,8.33
2018-04-18T05:36:11.870Z,8.10
2018-04-18T05:38:40.292Z,9.70
2018-04-18T05:41:07.889Z,11.03
2018-04-18T05:43:36.302Z,9.60
2018-04-18T05:48:01.738Z,9.87
2018-04-18T05:50:29.369Z,8.60
2018-04-18T05:52:56.956Z,8.83
2018-04-18T05:55:24.621Z,8.03
2018-04-18T05:57:53.008Z,8.40
2018-04-18T06:00:20.660Z,8.10
2018-04-18T06:02:48.284Z,8.17
2018-04-18T06:05:15.881Z,8.00
2018-04-18T06:07:43.510Z,8.53
2018-04-18T06:10:11.156Z,8.20
2018-04-18T06:12:38.796Z,8.47
2018-04-18T06:15:06.390Z,8.80
2018-04-18T06:17:34.409Z,8.53
2018-04-18T06:20:02.034Z,8.53
2018-04-18T06:22:30.400Z,9.73
2018-04-18T06:24:58.004Z,8.70
2018-04-18T06:27:25.663Z,8.90
2018-04-18T06:29:53.317Z,8.80
2018-04-18T06:32:20.909Z,8.13
2018-04-18T06:34:48.532Z,8.30
2018-04-18T06:37:16.884Z,9.03
2018-04-18T06:39:44.514Z,7.90
2018-04-18T06:42:12.917Z,7.97
2018-04-18T06:44:40.512Z,8.57
2018-04-18T06:47:08.912Z,9.03
2018-04-18T06:49:36.520Z,8.60
2018-04-18T06:52:04.157Z,8.53
2018-04-18T06:54:31.746Z,7.33
2018-04-18T06:56:59.332Z,7.83
2018-04-18T06:59:27.798Z,7.63
2018-04-18T07:01:56.157Z,8.30
2018-04-18T07:04:23.792Z,7.80
2018-04-18T07:06:51.385Z,7.67
2018-04-18T07:09:19.032Z,7.43
2018-04-18T07:11:46.622Z,7.77
2018-04-18T07:14:14.980Z,6.97
2018-04-18T07:16:42.580Z,6.73
2018-04-18T07:19:10.205Z,7.07
2018-04-18T07:21:37.866Z,6.70
2018-04-18T07:24:05.485Z,7.27
2018-04-18T07:26:33.117Z,7.73
2018-04-18T07:29:01.476Z,7.20
2018-04-18T07:31:29.877Z,6.53
2018-04-18T07:33:58.273Z,6.33
2018-04-18T07:36:25.865Z,6.33
2018-04-18T07:38:53.678Z,6.80
2018-04-18T07:41:21.393Z,6.37
2018-04-18T07:43:49.049Z,8.50
2018-04-18T07:46:16.716Z,6.40
2018-04-18T07:48:44.305Z,7.77
2018-04-18T07:51:12.145Z,6.87
2018-04-18T07:53:39.814Z,7.17
2018-04-18T07:56:07.464Z,7.30
2018-04-18T07:58:35.059Z,6.47
2018-04-18T08:01:03.469Z,5.80
2018-04-18T08:03:31.165Z,5.90
2018-04-18T08:05:58.816Z,6.10
2018-04-18T08:08:27.237Z,5.90
2018-04-18T08:10:54.857Z,5.83
2018-04-18T08:13:22.688Z,5.87
2018-04-18T08:15:50.396Z,6.20
2018-04-18T08:18:18.099Z,5.77
2018-04-18T08:20:46.462Z,5.60
2018-04-18T08:23:14.144Z,6.13
2018-04-18T08:25:42.503Z,6.10
2018-04-18T08:28:10.166Z,6.03
2018-04-18T08:30:37.766Z,6.07
2018-04-18T08:33:05.410Z,6.17
2018-04-18T08:35:33.804Z,5.87
2018-04-18T08:38:01.400Z,5.57
2018-04-18T08:40:29.065Z,6.13
2018-04-18T08:42:56.714Z,6.40
2018-04-18T08:45:24.317Z,5.70
2018-04-18T08:47:52.681Z,6.37
2018-04-18T08:50:20.270Z,6.50
2018-04-18T08:52:48.845Z,5.57
2018-04-18T08:55:17.220Z,5.50
2018-04-18T08:57:45.612Z,5.80
2018-04-18T09:00:14.060Z,5.30
2018-04-18T09:02:41.772Z,5.27
2018-04-18T09:05:09.386Z,5.83
2018-04-18T09:07:37.021Z,4.87
2018-04-18T09:10:04.643Z,5.27
2018-04-18T09:12:32.241Z,5.10
2018-04-18T09:14:59.842Z,5.20
2018-04-18T09:17:28.251Z,5.90
2018-04-18T09:19:55.877Z,4.70
2018-04-18T09:22:23.469Z,4.53
2018-04-18T09:24:51.057Z,5.03
2018-04-18T09:27:18.649Z,4.83
2018-04-18T09:29:46.237Z,4.90
2018-04-18T09:32:14.597Z,4.67
2018-04-18T09:34:42.197Z,4.60
2018-04-18T09:37:09.825Z,4.90
2018-04-18T09:39:38.198Z,4.67
2018-04-18T09:42:05.789Z,4.93
2018-04-18T09:44:33.377Z,5.23
2018-04-18T09:47:00.981Z,4.77
2018-04-18T09:49:28.673Z,4.80
2018-04-18T09:51:56.324Z,4.93
2018-04-18T09:54:24.681Z,5.37
2018-04-18T09:56:52.310Z,5.00
2018-04-18T09:59:19.950Z,5.23
2018-04-18T10:01:48.464Z,5.50
2018-04-18T10:04:16.120Z,5.70
2018-04-18T10:06:43.709Z,5.70
2018-04-18T10:09:11.321Z,5.57
2018-04-18T10:11:38.957Z,4.97
2018-04-18T10:14:06.573Z,5.00
2018-04-18T10:16:34.188Z,5.43
2018-04-18T10:19:01.857Z,5.50
2018-04-18T10:21:30.456Z,4.90
2018-04-18T10:23:58.055Z,4.50
2018-04-18T10:26:25.644Z,4.70
2018-04-18T10:28:53.234Z,4.80
2018-04-18T10:31:20.824Z,4.77
2018-04-18T10:33:48.451Z,4.80
2018-04-18T10:36:16.086Z,4.50
2018-04-18T10:38:43.676Z,4.80
2018-04-18T10:41:11.365Z,4.67
2018-04-18T10:43:39.089Z,4.50
2018-04-18T10:46:06.779Z,4.37
2018-04-18T10:48:34.377Z,4.30
2018-04-18T10:51:02.744Z,4.60
2018-04-18T10:53:30.329Z,4.60
2018-04-18T10:55:57.924Z,4.60
2018-04-18T10:58:25.509Z,4.30
2018-04-18T11:00:53.889Z,4.63
2018-04-18T11:03:21.524Z,4.67
2018-04-18T11:05:49.114Z,4.37
2018-04-18T11:08:17.495Z,4.30
2018-04-18T11:10:45.093Z,4.37
2018-04-18T11:13:12.717Z,4.40
2018-04-18T11:15:40.305Z,4.00
2018-04-18T11:18:08.652Z,4.10
2018-04-18T11:20:36.242Z,4.70
2018-04-18T11:23:04.589Z,4.50
2018-04-18T11:25:32.209Z,4.80
2018-04-18T11:27:59.798Z,5.03
2018-04-18T11:30:27.381Z,4.73
2018-04-18T11:32:54.972Z,6.03
2018-04-18T11:35:22.566Z,5.00
2018-04-18T11:37:50.153Z,4.70
2018-04-18T11:40:17.742Z,5.20
2018-04-18T11:42:46.190Z,4.87
2018-04-18T11:45:13.776Z,4.53
2018-04-18T11:47:42.141Z,4.30
2018-04-18T11:50:09.771Z,4.70
2018-04-18T11:52:37.407Z,4.50
2018-04-18T11:55:05.036Z,4.70
2018-04-18T11:57:33.480Z,4.13
2018-04-18T12:00:01.050Z,4.60
2018-04-18T12:02:28.660Z,4.37
2018-04-18T12:04:56.252Z,4.93
2018-04-18T12:07:23.840Z,4.77
2018-04-18T12:09:51.447Z,4.57
2018-04-18T12:12:19.183Z,4.20
2018-04-18T12:14:46.792Z,4.27
2018-04-18T12:17:14.376Z,4.33
2018-04-18T12:19:41.965Z,4.20
2018-04-18T12:22:10.357Z,4.00
2018-04-18T12:24:37.952Z,4.20
2018-04-18T12:27:05.550Z,4.23
2018-04-18T12:29:33.136Z,4.50
2018-04-18T12:32:00.728Z,4.50
2018-04-18T12:34:28.476Z,4.03
2018-04-18T12:36:56.056Z,4.20
2018-04-18T12:39:23.658Z,4.77
2018-04-18T12:41:52.009Z,4.63
2018-04-18T12:44:19.612Z,3.83
2018-04-18T12:46:47.968Z,3.93
2018-04-18T12:49:15.566Z,3.80
2018-04-18T12:51:43.157Z,4.40
2018-04-18T12:54:10.736Z,4.43
2018-04-18T12:56:38.332Z,4.40
2018-04-18T12:59:05.928Z,4.47
2018-04-18T13:01:33.546Z,4.63
2018-04-18T13:04:01.944Z,4.37
2018-04-18T13:06:29.568Z,4.70
2018-04-18T13:08:57.144Z,3.97
2018-04-18T13:11:25.553Z,3.60
2018-04-18T13:13:53.150Z,4.20
2018-04-18T13:16:20.732Z,4.07
2018-04-18T13:18:49.096Z,4.03
2018-04-18T13:21:16.684Z,4.10
2018-04-18T13:23:45.237Z,4.63
2018-04-18T13:26:12.830Z,4.07
2018-04-18T13:28:41.420Z,4.13
2018-04-18T13:31:09.244Z,4.23
2018-04-18T13:33:36.845Z,4.27
2018-04-18T13:36:04.449Z,4.03
2018-04-18T13:38:32.081Z,3.87
2018-04-18T13:40:59.660Z,3.80
2018-04-18T13:43:27.241Z,3.83
2018-04-18T13:45:54.835Z,3.60
2018-04-18T13:48:23.363Z,4.20
2018-04-18T13:50:50.976Z,3.63
2018-04-18T13:53:19.336Z,3.93
2018-04-18T13:55:46.921Z,4.10
2018-04-18T13:58:15.272Z,4.30
2018-04-18T14:00:42.869Z,4.10
2018-04-18T14:03:10.492Z,4.20
2018-04-18T14:05:38.084Z,3.93
2018-04-18T14:08:05.682Z,4.00
2018-04-18T14:10:33.268Z,3.70
2018-04-18T14:13:00.853Z,4.13
2018-04-18T14:15:29.201Z,4.23
2018-04-18T14:17:56.801Z,4.20
2018-04-18T14:20:25.158Z,3.63
2018-04-18T14:22:52.740Z,4.30
2018-04-18T14:25:21.090Z,4.20
2018-04-18T14:27:48.685Z,4.27
2018-04-18T14:30:16.282Z,3.80
2018-04-18T14:32:43.896Z,4.00
2018-04-18T14:35:12.248Z,4.75
2018-04-18T14:37:39.914Z,5.30
2018-04-18T14:40:08.237Z,4.10
2018-04-18T14:42:35.820Z,4.07
2018-04-18T14:45:03.408Z,4.13
2018-04-18T14:47:31.784Z,4.50
2018-04-18T14:49:59.380Z,4.60
2018-04-18T14:52:27.016Z,4.30
2018-04-18T14:54:54.598Z,4.37
2018-04-18T14:57:22.189Z,4.40
2018-04-18T14:59:49.830Z,4.65
2018-04-18T15:02:17.441Z,4.30
2018-04-18T15:04:45.049Z,4.07
2018-04-18T15:07:12.646Z,3.90
2018-04-18T15:09:40.239Z,4.22
2018-04-18T15:12:07.921Z,4.43
2018-04-18T15:14:35.524Z,4.47
2018-04-18T15:17:03.112Z,4.40
2018-04-18T15:19:30.703Z,4.07
2018-04-18T15:21:58.293Z,4.60
2018-04-18T15:24:25.885Z,4.43
2018-04-18T15:26:54.269Z,4.10
2018-04-18T15:29:21.856Z,4.12
2018-04-18T15:31:50.253Z,4.35
2018-04-18T15:34:17.884Z,4.10
2018-04-18T15:36:46.249Z,3.90
2018-04-18T15:39:13.837Z,4.37
2018-04-18T15:41:42.194Z,4.47
2018-04-18T15:44:09.789Z,4.00
2018-04-18T15:46:37.393Z,3.97
2018-04-18T15:49:05.001Z,3.90
2018-04-18T15:51:32.729Z,3.95
2018-04-18T15:54:00.333Z,4.07
2018-04-18T15:56:27.971Z,3.75
2018-04-18T15:58:56.425Z,4.12
2018-04-18T16:01:24.019Z,5.00
2018-04-18T16:03:52.389Z,5.57
2018-04-18T16:06:20.793Z,4.05
2018-04-18T16:08:48.517Z,4.12
2018-04-18T16:11:16.118Z,4.03
2018-04-18T16:13:43.705Z,4.12
2018-04-18T16:16:11.392Z,4.50
2018-04-18T16:18:39.115Z,4.10
2018-04-18T16:21:06.709Z,4.15
2018-04-18T16:23:34.319Z,4.10
2018-04-18T16:26:01.937Z,4.60
2018-04-18T16:28:29.541Z,4.37
2018-04-18T16:30:57.161Z,3.90
2018-04-18T16:33:24.792Z,4.47
2018-04-18T16:35:52.513Z,4.57
2018-04-18T16:38:20.889Z,4.28
2018-04-18T16:40:49.253Z,4.30
2018-04-18T16:43:16.990Z,4.57
2018-04-18T16:45:44.590Z,4.30
2018-04-18T16:48:13.006Z,5.20
2018-04-18T16:50:40.667Z,5.72
2018-04-18T16:53:08.329Z,5.50
2018-04-18T16:55:35.998Z,4.53
2018-04-18T16:58:03.613Z,4.28
2018-04-18T17:00:32.001Z,4.10
2018-04-18T17:03:00.391Z,4.15
2018-04-18T17:05:28.829Z,4.10
2018-04-18T17:07:56.425Z,4.15
2018-04-18T17:10:24.105Z,3.80
2018-04-18T17:12:51.794Z,4.18
2018-04-18T17:15:19.400Z,4.15
2018-04-18T17:17:47.772Z,4.97
2018-04-18T17:20:16.198Z,4.60
2018-04-18T17:22:43.785Z,4.90
2018-04-18T17:25:11.376Z,6.03
2018-04-18T17:27:39.753Z,7.35
2018-04-18T17:30:08.165Z,7.37
2018-04-18T17:32:36.003Z,7.43
2018-04-18T17:35:03.620Z,6.80
2018-04-18T17:37:31.335Z,7.60
2018-04-18T17:39:58.954Z,7.73
2018-04-18T17:42:26.589Z,6.87
2018-04-18T17:44:54.192Z,5.80
2018-04-18T17:47:21.815Z,6.57
2018-04-18T17:49:49.421Z,5.83
2018-04-18T17:52:17.845Z,6.50
2018-04-18T17:54:45.489Z,5.77
2018-04-18T17:57:13.095Z,5.70
2018-04-18T17:59:40.731Z,5.47
2018-04-18T18:02:08.431Z,5.70
2018-04-18T18:04:36.029Z,5.60
2018-04-18T18:07:03.724Z,5.10
2018-04-18T18:09:31.324Z,4.73
2018-04-18T18:11:58.933Z,4.87
2018-04-18T18:14:27.179Z,4.87
2018-04-18T18:16:54.859Z,4.73
2018-04-18T18:19:22.510Z,5.00
2018-04-18T18:21:50.159Z,4.90
2018-04-18T18:24:17.961Z,4.60
2018-04-18T18:26:45.695Z,4.70
2018-04-18T18:29:13.550Z,4.77
2018-04-18T18:31:43.278Z,5.13
2018-04-18T18:34:11.013Z,4.90
2018-04-18T18:36:39.402Z,4.90
2018-04-18T18:39:08.045Z,5.40
2018-04-18T18:41:35.832Z,5.63
2018-04-18T18:44:03.730Z,7.83
2018-04-18T18:46:31.457Z,6.67
2018-04-18T18:48:59.679Z,6.23
2018-04-18T18:51:27.649Z,6.37
2018-04-18T18:53:55.962Z,6.40
2018-04-18T18:56:23.839Z,5.83
2018-04-18T18:58:52.416Z,6.00
2018-04-18T19:01:20.829Z,5.93
2018-04-18T19:03:49.209Z,6.20
2018-04-18T19:06:17.613Z,6.53
2018-04-18T19:08:45.349Z,6.03
2018-04-18T19:11:13.722Z,6.50
2018-04-18T19:13:41.330Z,6.90
2018-04-18T19:16:08.987Z,7.33
2018-04-18T19:18:36.609Z,6.50
2018-04-18T19:21:05.122Z,6.80
2018-04-18T19:23:32.749Z,6.03
2018-04-18T19:26:01.117Z,6.77
2018-04-18T19:28:28.781Z,5.93
2018-04-18T19:30:56.655Z,6.47
2018-04-18T19:33:24.601Z,6.60
2018-04-18T19:35:53.483Z,6.20
2018-04-18T19:38:21.348Z,6.63
2018-04-18T19:40:49.089Z,6.93
2018-04-18T19:43:17.667Z,7.40
2018-04-18T19:45:46.097Z,6.50
2018-04-18T19:48:14.823Z,7.73
2018-04-18T19:50:42.929Z,6.93
2018-04-18T19:53:10.804Z,7.17
2018-04-18T19:55:39.369Z,6.90
2018-04-18T19:58:07.093Z,7.23
2018-04-18T20:00:35.495Z,7.20
2018-04-18T20:03:03.311Z,6.80
2018-04-18T20:05:31.521Z,6.67
2018-04-18T20:07:59.551Z,8.60
2018-04-18T20:10:27.333Z,7.73
2018-04-18T20:12:55.826Z,8.57
2018-04-18T20:15:24.362Z,8.50
2018-04-18T20:17:52.118Z,8.27
2018-04-18T20:20:19.729Z,8.37
2018-04-18T20:22:48.094Z,7.37
2018-04-18T20:25:15.709Z,6.93
2018-04-18T20:27:43.679Z,7.10
2018-04-18T20:30:11.304Z,6.93
2018-04-18T20:32:39.678Z,6.80
2018-04-18T20:35:08.051Z,7.10
2018-04-18T20:37:35.684Z,6.60
2018-04-18T20:40:03.542Z,7.17
2018-04-18T20:42:31.171Z,7.60
2018-04-18T20:44:58.927Z,6.60
2018-04-18T20:47:26.522Z,6.60
2018-04-18T20:49:54.124Z,7.30
2018-04-18T20:52:22.489Z,6.93
2018-04-18T20:54:50.173Z,7.30
2018-04-18T20:57:18.540Z,6.73
2018-04-18T20:59:46.148Z,6.87
2018-04-18T21:02:13.748Z,6.90
2018-04-18T21:04:41.355Z,6.57
2018-04-18T21:07:09.284Z,7.10
2018-04-18T21:09:36.974Z,6.80
2018-04-18T21:12:04.620Z,6.97
2018-04-18T21:14:33.028Z,7.07
2018-04-18T21:17:00.725Z,7.03
2018-04-18T21:19:28.661Z,6.50
2018-04-18T21:21:57.296Z,7.87
2018-04-18T21:24:24.886Z,7.40
2018-04-18T21:26:53.292Z,7.87
2018-04-18T21:29:20.890Z,7.53
2018-04-18T21:31:48.640Z,7.73
2018-04-18T21:34:16.256Z,7.27
2018-04-18T21:36:44.636Z,8.03
2018-04-18T21:39:12.244Z,7.80
2018-04-18T21:41:40.044Z,7.60
2018-04-18T21:44:07.648Z,6.37
2018-04-18T21:46:35.237Z,6.70
2018-04-18T21:49:02.836Z,7.17
2018-04-18T21:51:31.184Z,7.10
2018-04-18T21:53:58.773Z,6.90
2018-04-18T21:56:27.181Z,7.60
2018-04-18T21:58:54.792Z,6.97
2018-04-18T22:01:22.380Z,6.53
2018-04-18T22:03:49.973Z,6.60
2018-04-18T22:06:17.569Z,7.23
2018-04-18T22:08:45.164Z,7.07
2018-04-18T22:11:12.757Z,7.13
2018-04-18T22:13:40.343Z,6.53
2018-04-18T22:16:07.941Z,6.30
2018-04-18T22:18:35.537Z,6.83
2018-04-18T22:21:03.122Z,6.47
2018-04-18T22:23:30.728Z,6.60
2018-04-18T22:25:58.321Z,6.80
2018-04-18T22:28:25.904Z,7.13
2018-04-18T22:30:53.525Z,6.50
2018-04-18T22:33:21.152Z,6.97
2018-04-18T22:35:49.516Z,5.97
2018-04-18T22:38:17.112Z,6.67
2018-04-18T22:40:44.696Z,6.37
2018-04-18T22:43:12.281Z,6.70
2018-04-18T22:45:39.889Z,6.53
2018-04-18T22:48:07.493Z,7.00
2018-04-18T22:50:35.077Z,6.53
2018-04-18T22:53:02.668Z,6.73
2018-04-18T22:55:30.288Z,6.60
2018-04-18T22:57:57.881Z,6.47
2018-04-18T23:00:26.242Z,6.20
2018-04-18T23:02:54.599Z,6.80
2018-04-18T23:05:22.196Z,6.20
2018-04-18T23:07:50.552Z,6.60
2018-04-18T23:10:18.151Z,6.57
2018-04-18T23:12:45.741Z,6.97
2018-04-18T23:15:13.333Z,6.47
2018-04-18T23:17:40.927Z,6.67
2018-04-18T23:20:08.616Z,6.70
2018-04-18T23:22:36.208Z,6.53
2018-04-18T23:25:03.800Z,6.63
2018-04-18T23:27:32.217Z,7.00
2018-04-18T23:29:59.834Z,6.13
2018-04-18T23:32:28.245Z,6.70
2018-04-18T23:34:55.836Z,6.77
2018-04-18T23:37:23.447Z,6.17
2018-04-18T23:39:51.087Z,6.10
2018-04-18T23:42:19.449Z,6.60
2018-04-18T23:44:47.073Z,6.20
2018-04-18T23:47:14.673Z,5.73
2018-04-18T23:49:42.261Z,6.30
2018-04-18T23:52:09.857Z,6.40
2018-04-18T23:54:37.468Z,6.90
2018-04-18T23:57:05.834Z,6.30
2018-04-18T23:59:33.438Z,5.80
